sensor_id;sensor_type;location;lat;lon;timestamp;temperature;humidity
27164;DHT22;14685;50.618;7.024;2022-12-29T00:00:05;11.90;99.90
27164;DHT22;14685;50.618;7.024;2022-12-29T00:02:32;11.90;99.90
27164;DHT22;14685;50.618;7.024;2022-12-29T00:04:59;11.90;99.90
27164;DHT22;14685;50.618;7.024;2022-12-29T00:07:26;11.90;99.90
27164;DHT22;14685;50.618;7.024;2022-12-29T00:09:54;11.90;99.90
27164;DHT22;14685;50.618;7.024;2022-12-29T00:12:20;11.90;99.90
27164;DHT22;14685;50.618;7.024;2022-12-29T00:14:47;11.90;99.90
27164;DHT22;14685;50.618;7.024;2022-12-29T00:17:33;11.90;99.90
27164;DHT22;14685;50.618;7.024;2022-12-29T00:20:00;12.00;99.90
27164;DHT22;14685;50.618;7.024;2022-12-29T00:22:45;12.00;99.90
27164;DHT22;14685;50.618;7.024;2022-12-29T00:25:30;12.00;99.90
27164;DHT22;14685;50.618;7.024;2022-12-29T00:28:16;12.00;99.90
27164;DHT22;14685;50.618;7.024;2022-12-29T00:31:01;12.00;99.90
27164;DHT22;14685;50.618;7.024;2022-12-29T00:33:47;12.00;99.90
27164;DHT22;14685;50.618;7.024;2022-12-29T00:36:39;12.00;99.90
27164;DHT22;14685;50.618;7.024;2022-12-29T00:39:14;12.10;99.90
27164;DHT22;14685;50.618;7.024;2022-12-29T00:42:06;12.10;99.90
27164;DHT22;14685;50.618;7.024;2022-12-29T00:44:52;12.10;99.90
27164;DHT22;14685;50.618;7.024;2022-12-29T00:47:19;12.10;99.90
27164;DHT22;14685;50.618;7.024;2022-12-29T00:49:47;12.10;99.90
27164;DHT22;14685;50.618;7.024;2022-12-29T00:52:14;12.10;99.90
27164;DHT22;14685;50.618;7.024;2022-12-29T00:54:41;12.20;99.90
27164;DHT22;14685;50.618;7.024;2022-12-29T00:57:11;12.20;99.90
27164;DHT22;14685;50.618;7.024;2022-12-29T00:59:40;12.20;99.90
27164;DHT22;14685;50.618;7.024;2022-12-29T01:02:08;12.20;99.90
27164;DHT22;14685;50.618;7.024;2022-12-29T01:04:35;12.20;99.90
27164;DHT22;14685;50.618;7.024;2022-12-29T01:07:03;12.20;99.90
27164;DHT22;14685;50.618;7.024;2022-12-29T01:09:31;12.20;99.90
27164;DHT22;14685;50.618;7.024;2022-12-29T01:12:16;12.20;99.90
27164;DHT22;14685;50.618;7.024;2022-12-29T01:15:04;12.20;99.90
27164;DHT22;14685;50.618;7.024;2022-12-29T01:17:32;12.30;99.90
27164;DHT22;14685;50.618;7.024;2022-12-29T01:20:00;12.30;99.90
27164;DHT22;14685;50.618;7.024;2022-12-29T01:22:27;12.30;99.90
27164;DHT22;14685;50.618;7.024;2022-12-29T01:24:56;12.30;99.90
27164;DHT22;14685;50.618;7.024;2022-12-29T01:27:22;12.40;99.90
27164;DHT22;14685;50.618;7.024;2022-12-29T01:29:49;12.50;99.90
27164;DHT22;14685;50.618;7.024;2022-12-29T01:32:16;12.40;99.90
27164;DHT22;14685;50.618;7.024;2022-12-29T01:34:43;12.50;99.90
27164;DHT22;14685;50.618;7.024;2022-12-29T01:37:11;12.40;99.90
27164;DHT22;14685;50.618;7.024;2022-12-29T01:39:38;12.50;99.90
27164;DHT22;14685;50.618;7.024;2022-12-29T01:42:04;12.50;99.90
27164;DHT22;14685;50.618;7.024;2022-12-29T01:44:54;12.40;99.90
27164;DHT22;14685;50.618;7.024;2022-12-29T01:47:30;12.40;99.90
27164;DHT22;14685;50.618;7.024;2022-12-29T01:50:01;12.50;99.90
27164;DHT22;14685;50.618;7.024;2022-12-29T01:52:32;12.50;99.90
27164;DHT22;14685;50.618;7.024;2022-12-29T01:55:02;12.50;99.90
27164;DHT22;14685;50.618;7.024;2022-12-29T01:57:33;12.50;99.90
27164;DHT22;14685;50.618;7.024;2022-12-29T02:00:10;12.50;99.90
27164;DHT22;14685;50.618;7.024;2022-12-29T02:02:37;12.50;99.90
27164;DHT22;14685;50.618;7.024;2022-12-29T02:05:11;12.50;99.90
27164;DHT22;14685;50.618;7.024;2022-12-29T02:07:39;12.60;99.90
27164;DHT22;14685;50.618;7.024;2022-12-29T02:10:07;12.60;99.90
27164;DHT22;14685;50.618;7.024;2022-12-29T02:12:34;12.60;99.90
27164;DHT22;14685;50.618;7.024;2022-12-29T02:15:02;12.60;99.90
27164;DHT22;14685;50.618;7.024;2022-12-29T02:26:30;12.60;99.90
27164;DHT22;14685;50.618;7.024;2022-12-29T02:32:01;12.60;99.90
27164;DHT22;14685;50.618;7.024;2022-12-29T02:35:06;12.50;99.90
27164;DHT22;14685;50.618;7.024;2022-12-29T02:43:19;12.50;99.90
27164;DHT22;14685;50.618;7.024;2022-12-29T02:46:01;12.50;99.90
27164;DHT22;14685;50.618;7.024;2022-12-29T02:49:08;12.40;99.90
27164;DHT22;14685;50.618;7.024;2022-12-29T02:54:19;12.40;99.90
27164;DHT22;14685;50.618;7.024;2022-12-29T02:59:53;12.40;99.90
27164;DHT22;14685;50.618;7.024;2022-12-29T03:02:34;12.40;99.90
27164;DHT22;14685;50.618;7.024;2022-12-29T03:08:03;12.50;99.90
27164;DHT22;14685;50.618;7.024;2022-12-29T03:10:35;12.50;99.90
27164;DHT22;14685;50.618;7.024;2022-12-29T03:13:12;12.50;99.90
27164;DHT22;14685;50.618;7.024;2022-12-29T03:16:14;12.50;99.90
27164;DHT22;14685;50.618;7.024;2022-12-29T03:19:08;12.50;99.90
27164;DHT22;14685;50.618;7.024;2022-12-29T03:21:44;12.50;99.90
27164;DHT22;14685;50.618;7.024;2022-12-29T03:24:32;12.50;99.90
27164;DHT22;14685;50.618;7.024;2022-12-29T03:27:03;12.50;99.90
27164;DHT22;14685;50.618;7.024;2022-12-29T03:29:37;12.50;99.90
27164;DHT22;14685;50.618;7.024;2022-12-29T03:32:06;12.50;99.90
27164;DHT22;14685;50.618;7.024;2022-12-29T03:34:36;12.50;99.90
27164;DHT22;14685;50.618;7.024;2022-12-29T03:37:09;12.50;99.90
27164;DHT22;14685;50.618;7.024;2022-12-29T03:39:37;12.40;99.90
27164;DHT22;14685;50.618;7.024;2022-12-29T03:42:11;12.40;99.90
27164;DHT22;14685;50.618;7.024;2022-12-29T03:44:41;12.40;99.90
27164;DHT22;14685;50.618;7.024;2022-12-29T03:47:10;12.40;99.90
27164;DHT22;14685;50.618;7.024;2022-12-29T03:49:37;12.40;99.90
27164;DHT22;14685;50.618;7.024;2022-12-29T03:52:05;12.50;99.90
27164;DHT22;14685;50.618;7.024;2022-12-29T03:54:32;12.50;99.90
27164;DHT22;14685;50.618;7.024;2022-12-29T03:57:01;12.50;99.90
27164;DHT22;14685;50.618;7.024;2022-12-29T03:59:31;12.50;99.90
27164;DHT22;14685;50.618;7.024;2022-12-29T04:01:59;12.50;99.90
27164;DHT22;14685;50.618;7.024;2022-12-29T04:04:26;12.50;99.90
27164;DHT22;14685;50.618;7.024;2022-12-29T04:06:53;12.50;99.90
27164;DHT22;14685;50.618;7.024;2022-12-29T04:09:19;12.50;99.90
27164;DHT22;14685;50.618;7.024;2022-12-29T04:11:46;12.50;99.90
27164;DHT22;14685;50.618;7.024;2022-12-29T04:14:13;12.40;99.90
27164;DHT22;14685;50.618;7.024;2022-12-29T04:16:40;12.40;99.90
27164;DHT22;14685;50.618;7.024;2022-12-29T04:19:07;12.30;99.90
27164;DHT22;14685;50.618;7.024;2022-12-29T04:21:34;12.30;99.90
27164;DHT22;14685;50.618;7.024;2022-12-29T04:24:03;12.30;99.90
27164;DHT22;14685;50.618;7.024;2022-12-29T04:26:33;12.30;99.90
27164;DHT22;14685;50.618;7.024;2022-12-29T04:29:00;12.30;99.90
27164;DHT22;14685;50.618;7.024;2022-12-29T04:31:26;12.30;99.90
27164;DHT22;14685;50.618;7.024;2022-12-29T04:33:55;12.30;99.90
27164;DHT22;14685;50.618;7.024;2022-12-29T04:36:23;12.30;99.90
27164;DHT22;14685;50.618;7.024;2022-12-29T04:38:56;12.20;99.90
27164;DHT22;14685;50.618;7.024;2022-12-29T04:41:23;12.20;99.90
27164;DHT22;14685;50.618;7.024;2022-12-29T04:43:49;12.20;99.90
27164;DHT22;14685;50.618;7.024;2022-12-29T04:46:16;12.20;99.90
27164;DHT22;14685;50.618;7.024;2022-12-29T04:48:43;12.20;99.90
27164;DHT22;14685;50.618;7.024;2022-12-29T04:51:10;12.20;99.90
27164;DHT22;14685;50.618;7.024;2022-12-29T04:53:38;12.10;99.90
27164;DHT22;14685;50.618;7.024;2022-12-29T04:56:05;12.20;99.90
27164;DHT22;14685;50.618;7.024;2022-12-29T04:58:32;12.20;99.90
27164;DHT22;14685;50.618;7.024;2022-12-29T05:00:59;12.20;99.90
27164;DHT22;14685;50.618;7.024;2022-12-29T05:03:26;12.20;99.90
27164;DHT22;14685;50.618;7.024;2022-12-29T05:05:54;12.20;99.90
27164;DHT22;14685;50.618;7.024;2022-12-29T05:08:22;12.10;99.90
27164;DHT22;14685;50.618;7.024;2022-12-29T05:10:54;12.10;99.90
27164;DHT22;14685;50.618;7.024;2022-12-29T05:13:21;12.00;99.90
27164;DHT22;14685;50.618;7.024;2022-12-29T05:15:50;12.00;99.90
27164;DHT22;14685;50.618;7.024;2022-12-29T05:18:19;12.00;99.90
27164;DHT22;14685;50.618;7.024;2022-12-29T05:20:46;11.90;99.90
27164;DHT22;14685;50.618;7.024;2022-12-29T05:23:14;11.80;99.90
27164;DHT22;14685;50.618;7.024;2022-12-29T05:25:40;11.80;99.90
27164;DHT22;14685;50.618;7.024;2022-12-29T05:28:08;11.80;99.90
27164;DHT22;14685;50.618;7.024;2022-12-29T05:30:36;11.70;99.90
27164;DHT22;14685;50.618;7.024;2022-12-29T05:33:03;11.70;99.90
27164;DHT22;14685;50.618;7.024;2022-12-29T05:35:31;11.70;99.90
27164;DHT22;14685;50.618;7.024;2022-12-29T05:37:58;11.80;99.90
27164;DHT22;14685;50.618;7.024;2022-12-29T05:40:25;11.80;99.90
27164;DHT22;14685;50.618;7.024;2022-12-29T05:42:52;11.80;99.90
27164;DHT22;14685;50.618;7.024;2022-12-29T05:45:19;11.80;99.90
27164;DHT22;14685;50.618;7.024;2022-12-29T05:47:45;11.90;99.90
27164;DHT22;14685;50.618;7.024;2022-12-29T05:50:14;12.00;99.90
27164;DHT22;14685;50.618;7.024;2022-12-29T05:52:41;12.00;99.90
27164;DHT22;14685;50.618;7.024;2022-12-29T05:55:07;12.00;99.90
27164;DHT22;14685;50.618;7.024;2022-12-29T05:57:34;12.00;99.90
27164;DHT22;14685;50.618;7.024;2022-12-29T06:00:03;12.00;99.90
27164;DHT22;14685;50.618;7.024;2022-12-29T06:02:31;12.10;99.90
27164;DHT22;14685;50.618;7.024;2022-12-29T06:05:00;12.10;99.90
27164;DHT22;14685;50.618;7.024;2022-12-29T06:07:27;12.10;99.90
27164;DHT22;14685;50.618;7.024;2022-12-29T06:09:55;12.10;99.90
27164;DHT22;14685;50.618;7.024;2022-12-29T06:12:21;12.10;99.90
27164;DHT22;14685;50.618;7.024;2022-12-29T06:14:48;12.20;99.90
27164;DHT22;14685;50.618;7.024;2022-12-29T06:17:15;12.20;99.90
27164;DHT22;14685;50.618;7.024;2022-12-29T06:19:45;12.20;99.90
27164;DHT22;14685;50.618;7.024;2022-12-29T06:22:13;12.30;99.90
27164;DHT22;14685;50.618;7.024;2022-12-29T06:24:40;12.30;99.90
27164;DHT22;14685;50.618;7.024;2022-12-29T06:27:07;12.20;99.90
27164;DHT22;14685;50.618;7.024;2022-12-29T06:29:34;12.30;99.90
27164;DHT22;14685;50.618;7.024;2022-12-29T06:32:03;12.30;99.90
27164;DHT22;14685;50.618;7.024;2022-12-29T06:34:32;12.30;99.90
27164;DHT22;14685;50.618;7.024;2022-12-29T06:36:59;12.40;99.90
27164;DHT22;14685;50.618;7.024;2022-12-29T06:39:26;12.50;99.90
27164;DHT22;14685;50.618;7.024;2022-12-29T06:41:53;12.50;99.90
27164;DHT22;14685;50.618;7.024;2022-12-29T06:44:22;12.50;99.90
27164;DHT22;14685;50.618;7.024;2022-12-29T06:46:49;12.60;99.90
27164;DHT22;14685;50.618;7.024;2022-12-29T06:49:17;12.70;99.90
27164;DHT22;14685;50.618;7.024;2022-12-29T06:51:44;12.70;99.90
27164;DHT22;14685;50.618;7.024;2022-12-29T06:54:11;12.70;99.90
27164;DHT22;14685;50.618;7.024;2022-12-29T06:56:38;12.70;99.90
27164;DHT22;14685;50.618;7.024;2022-12-29T06:59:04;12.80;99.90
27164;DHT22;14685;50.618;7.024;2022-12-29T07:01:32;12.70;99.90
27164;DHT22;14685;50.618;7.024;2022-12-29T07:03:59;12.70;99.90
27164;DHT22;14685;50.618;7.024;2022-12-29T07:06:26;12.70;99.90
27164;DHT22;14685;50.618;7.024;2022-12-29T07:08:53;12.60;99.90
27164;DHT22;14685;50.618;7.024;2022-12-29T07:11:23;12.60;99.90
27164;DHT22;14685;50.618;7.024;2022-12-29T07:13:52;12.50;99.90
27164;DHT22;14685;50.618;7.024;2022-12-29T07:16:19;12.50;99.90
27164;DHT22;14685;50.618;7.024;2022-12-29T07:18:47;12.40;99.90
27164;DHT22;14685;50.618;7.024;2022-12-29T07:21:14;12.40;99.90
27164;DHT22;14685;50.618;7.024;2022-12-29T07:23:42;12.30;99.90
27164;DHT22;14685;50.618;7.024;2022-12-29T07:26:12;12.20;99.90
27164;DHT22;14685;50.618;7.024;2022-12-29T07:28:39;12.10;99.90
27164;DHT22;14685;50.618;7.024;2022-12-29T07:31:18;12.10;99.90
27164;DHT22;14685;50.618;7.024;2022-12-29T07:33:46;12.00;99.90
27164;DHT22;14685;50.618;7.024;2022-12-29T07:36:15;12.00;99.90
27164;DHT22;14685;50.618;7.024;2022-12-29T07:38:42;12.00;99.90
27164;DHT22;14685;50.618;7.024;2022-12-29T07:41:10;12.00;99.90
27164;DHT22;14685;50.618;7.024;2022-12-29T07:43:37;12.00;99.90
27164;DHT22;14685;50.618;7.024;2022-12-29T07:46:04;12.00;99.90
27164;DHT22;14685;50.618;7.024;2022-12-29T07:48:32;12.00;99.90
27164;DHT22;14685;50.618;7.024;2022-12-29T07:51:02;12.00;99.90
27164;DHT22;14685;50.618;7.024;2022-12-29T07:53:29;12.10;99.90
27164;DHT22;14685;50.618;7.024;2022-12-29T07:55:56;12.10;99.90
27164;DHT22;14685;50.618;7.024;2022-12-29T07:58:24;12.10;99.90
27164;DHT22;14685;50.618;7.024;2022-12-29T08:00:57;12.10;99.90
27164;DHT22;14685;50.618;7.024;2022-12-29T08:03:24;12.20;99.90
27164;DHT22;14685;50.618;7.024;2022-12-29T08:05:52;12.20;99.90
27164;DHT22;14685;50.618;7.024;2022-12-29T08:08:20;12.20;99.90
27164;DHT22;14685;50.618;7.024;2022-12-29T08:10:47;12.20;99.90
27164;DHT22;14685;50.618;7.024;2022-12-29T08:13:14;12.20;99.90
27164;DHT22;14685;50.618;7.024;2022-12-29T08:15:40;12.10;99.90
27164;DHT22;14685;50.618;7.024;2022-12-29T08:18:08;12.20;99.90
27164;DHT22;14685;50.618;7.024;2022-12-29T08:20:35;12.10;99.90
27164;DHT22;14685;50.618;7.024;2022-12-29T08:23:03;12.20;99.90
27164;DHT22;14685;50.618;7.024;2022-12-29T08:25:29;12.10;99.90
27164;DHT22;14685;50.618;7.024;2022-12-29T08:27:56;12.20;99.90
27164;DHT22;14685;50.618;7.024;2022-12-29T08:30:25;12.20;99.90
27164;DHT22;14685;50.618;7.024;2022-12-29T08:32:53;12.20;99.90
27164;DHT22;14685;50.618;7.024;2022-12-29T08:35:20;12.20;99.90
27164;DHT22;14685;50.618;7.024;2022-12-29T08:37:46;12.30;99.90
27164;DHT22;14685;50.618;7.024;2022-12-29T08:40:15;12.30;99.90
27164;DHT22;14685;50.618;7.024;2022-12-29T08:42:41;12.30;99.90
27164;DHT22;14685;50.618;7.024;2022-12-29T08:45:09;12.30;99.90
27164;DHT22;14685;50.618;7.024;2022-12-29T08:47:36;12.30;99.90
27164;DHT22;14685;50.618;7.024;2022-12-29T08:50:03;12.30;99.90
27164;DHT22;14685;50.618;7.024;2022-12-29T08:52:30;12.30;99.90
27164;DHT22;14685;50.618;7.024;2022-12-29T08:54:56;12.30;99.90
27164;DHT22;14685;50.618;7.024;2022-12-29T08:57:24;12.30;99.90
27164;DHT22;14685;50.618;7.024;2022-12-29T08:59:51;12.30;99.90
27164;DHT22;14685;50.618;7.024;2022-12-29T09:02:18;12.30;99.90
27164;DHT22;14685;50.618;7.024;2022-12-29T09:04:50;12.30;99.90
27164;DHT22;14685;50.618;7.024;2022-12-29T09:07:17;12.20;99.90
27164;DHT22;14685;50.618;7.024;2022-12-29T09:09:44;12.30;99.90
27164;DHT22;14685;50.618;7.024;2022-12-29T09:12:10;12.30;99.90
27164;DHT22;14685;50.618;7.024;2022-12-29T09:14:37;12.40;99.90
27164;DHT22;14685;50.618;7.024;2022-12-29T09:17:05;12.30;99.90
27164;DHT22;14685;50.618;7.024;2022-12-29T09:19:51;12.30;99.90
27164;DHT22;14685;50.618;7.024;2022-12-29T09:22:18;12.30;99.90
27164;DHT22;14685;50.618;7.024;2022-12-29T09:24:44;12.20;99.90
27164;DHT22;14685;50.618;7.024;2022-12-29T09:27:11;12.20;99.90
27164;DHT22;14685;50.618;7.024;2022-12-29T09:29:38;12.40;99.90
27164;DHT22;14685;50.618;7.024;2022-12-29T09:32:05;12.40;99.90
27164;DHT22;14685;50.618;7.024;2022-12-29T09:34:34;12.50;99.90
27164;DHT22;14685;50.618;7.024;2022-12-29T09:37:00;12.60;99.90
27164;DHT22;14685;50.618;7.024;2022-12-29T09:39:27;12.70;99.90
27164;DHT22;14685;50.618;7.024;2022-12-29T09:42:07;12.80;99.90
27164;DHT22;14685;50.618;7.024;2022-12-29T09:45:38;12.90;99.90
27164;DHT22;14685;50.618;7.024;2022-12-29T09:47:45;12.90;99.90
27164;DHT22;14685;50.618;7.024;2022-12-29T09:50:23;13.00;99.90
27164;DHT22;14685;50.618;7.024;2022-12-29T09:53:15;12.90;99.90
27164;DHT22;14685;50.618;7.024;2022-12-29T09:55:53;12.90;99.90
27164;DHT22;14685;50.618;7.024;2022-12-29T09:58:41;12.80;99.90
27164;DHT22;14685;50.618;7.024;2022-12-29T10:01:23;13.00;99.90
27164;DHT22;14685;50.618;7.024;2022-12-29T10:03:56;13.00;99.90
27164;DHT22;14685;50.618;7.024;2022-12-29T10:12:22;13.20;99.90
27164;DHT22;14685;50.618;7.024;2022-12-29T10:14:57;13.20;99.90
27164;DHT22;14685;50.618;7.024;2022-12-29T10:23:25;13.10;99.90
27164;DHT22;14685;50.618;7.024;2022-12-29T10:25:56;13.10;99.90
27164;DHT22;14685;50.618;7.024;2022-12-29T10:31:24;13.10;99.90
27164;DHT22;14685;50.618;7.024;2022-12-29T10:34:03;13.10;99.90
27164;DHT22;14685;50.618;7.024;2022-12-29T10:36:44;13.10;99.90
27164;DHT22;14685;50.618;7.024;2022-12-29T10:42:14;13.10;99.90
27164;DHT22;14685;50.618;7.024;2022-12-29T10:44:42;13.10;99.90
27164;DHT22;14685;50.618;7.024;2022-12-29T10:47:17;13.00;99.90
27164;DHT22;14685;50.618;7.024;2022-12-29T10:49:47;13.10;99.90
27164;DHT22;14685;50.618;7.024;2022-12-29T10:52:16;13.10;99.90
27164;DHT22;14685;50.618;7.024;2022-12-29T10:59:51;13.30;99.90
27164;DHT22;14685;50.618;7.024;2022-12-29T11:02:26;13.30;99.90
27164;DHT22;14685;50.618;7.024;2022-12-29T11:05:23;13.30;99.90
27164;DHT22;14685;50.618;7.024;2022-12-29T11:08:00;13.30;99.90
27164;DHT22;14685;50.618;7.024;2022-12-29T11:10:40;13.30;99.90
27164;DHT22;14685;50.618;7.024;2022-12-29T11:13:17;13.20;99.90
27164;DHT22;14685;50.618;7.024;2022-12-29T11:15:48;13.10;99.90
27164;DHT22;14685;50.618;7.024;2022-12-29T11:20:52;13.00;99.90
27164;DHT22;14685;50.618;7.024;2022-12-29T11:23:33;13.00;99.90
27164;DHT22;14685;50.618;7.024;2022-12-29T11:28:45;13.00;99.90
27164;DHT22;14685;50.618;7.024;2022-12-29T11:31:16;13.00;99.90
27164;DHT22;14685;50.618;7.024;2022-12-29T11:33:44;13.00;99.90
27164;DHT22;14685;50.618;7.024;2022-12-29T11:36:15;13.00;99.90
27164;DHT22;14685;50.618;7.024;2022-12-29T11:38:53;12.90;99.90
27164;DHT22;14685;50.618;7.024;2022-12-29T11:41:29;12.90;99.90
27164;DHT22;14685;50.618;7.024;2022-12-29T11:44:00;12.90;99.90
27164;DHT22;14685;50.618;7.024;2022-12-29T11:46:34;12.90;99.90
27164;DHT22;14685;50.618;7.024;2022-12-29T11:49:02;12.90;99.90
27164;DHT22;14685;50.618;7.024;2022-12-29T11:51:39;13.00;99.90
27164;DHT22;14685;50.618;7.024;2022-12-29T11:54:20;12.90;99.90
27164;DHT22;14685;50.618;7.024;2022-12-29T11:56:48;12.90;99.90
27164;DHT22;14685;50.618;7.024;2022-12-29T12:02:01;12.90;99.90
27164;DHT22;14685;50.618;7.024;2022-12-29T12:04:34;13.00;99.90
27164;DHT22;14685;50.618;7.024;2022-12-29T12:07:11;13.00;99.90
27164;DHT22;14685;50.618;7.024;2022-12-29T12:12:31;12.90;99.90
27164;DHT22;14685;50.618;7.024;2022-12-29T12:15:01;13.00;99.90
27164;DHT22;14685;50.618;7.024;2022-12-29T12:17:40;12.90;99.90
27164;DHT22;14685;50.618;7.024;2022-12-29T12:25:55;12.90;99.90
27164;DHT22;14685;50.618;7.024;2022-12-29T12:28:36;12.90;99.90
27164;DHT22;14685;50.618;7.024;2022-12-29T12:31:11;12.90;99.90
27164;DHT22;14685;50.618;7.024;2022-12-29T12:33:45;12.90;99.90
27164;DHT22;14685;50.618;7.024;2022-12-29T12:37:17;12.90;99.90
27164;DHT22;14685;50.618;7.024;2022-12-29T12:50:24;12.90;99.90
27164;DHT22;14685;50.618;7.024;2022-12-29T12:53:08;12.90;99.90
27164;DHT22;14685;50.618;7.024;2022-12-29T12:59:12;13.00;99.90
27164;DHT22;14685;50.618;7.024;2022-12-29T13:04:23;13.10;99.90
27164;DHT22;14685;50.618;7.024;2022-12-29T13:07:01;13.10;99.90
27164;DHT22;14685;50.618;7.024;2022-12-29T13:12:31;13.20;99.90
27164;DHT22;14685;50.618;7.024;2022-12-29T13:17:49;13.20;99.90
27164;DHT22;14685;50.618;7.024;2022-12-29T13:20:41;13.20;99.90
27164;DHT22;14685;50.618;7.024;2022-12-29T13:28:55;13.30;99.90
27164;DHT22;14685;50.618;7.024;2022-12-29T13:37:31;13.20;99.90
27164;DHT22;14685;50.618;7.024;2022-12-29T13:40:13;13.10;99.90
27164;DHT22;14685;50.618;7.024;2022-12-29T13:42:45;13.10;99.90
27164;DHT22;14685;50.618;7.024;2022-12-29T13:45:19;13.00;99.90
27164;DHT22;14685;50.618;7.024;2022-12-29T13:50:52;12.90;99.90
27164;DHT22;14685;50.618;7.024;2022-12-29T14:01:13;12.80;99.90
27164;DHT22;14685;50.618;7.024;2022-12-29T14:03:49;12.70;99.90
27164;DHT22;14685;50.618;7.024;2022-12-29T14:06:24;12.80;99.90
27164;DHT22;14685;50.618;7.024;2022-12-29T14:09:03;12.80;99.90
27164;DHT22;14685;50.618;7.024;2022-12-29T14:11:41;12.70;99.90
27164;DHT22;14685;50.618;7.024;2022-12-29T14:14:23;12.80;99.90
27164;DHT22;14685;50.618;7.024;2022-12-29T14:16:52;12.80;99.90
27164;DHT22;14685;50.618;7.024;2022-12-29T14:19:30;12.80;99.90
27164;DHT22;14685;50.618;7.024;2022-12-29T14:22:03;12.80;99.90
27164;DHT22;14685;50.618;7.024;2022-12-29T14:29:50;12.60;99.90
27164;DHT22;14685;50.618;7.024;2022-12-29T14:34:59;12.50;99.90
27164;DHT22;14685;50.618;7.024;2022-12-29T14:37:31;12.40;99.90
27164;DHT22;14685;50.618;7.024;2022-12-29T14:40:24;12.40;99.90
27164;DHT22;14685;50.618;7.024;2022-12-29T14:42:59;12.30;99.90
27164;DHT22;14685;50.618;7.024;2022-12-29T14:45:30;12.30;99.90
27164;DHT22;14685;50.618;7.024;2022-12-29T14:48:38;12.30;99.90
27164;DHT22;14685;50.618;7.024;2022-12-29T14:51:31;12.30;99.90
27164;DHT22;14685;50.618;7.024;2022-12-29T14:53:59;12.30;99.90
27164;DHT22;14685;50.618;7.024;2022-12-29T14:56:28;12.40;99.90
27164;DHT22;14685;50.618;7.024;2022-12-29T14:59:10;12.40;99.90
27164;DHT22;14685;50.618;7.024;2022-12-29T15:01:45;12.40;99.90
27164;DHT22;14685;50.618;7.024;2022-12-29T15:04:20;12.40;99.90
27164;DHT22;14685;50.618;7.024;2022-12-29T15:06:49;12.40;99.90
27164;DHT22;14685;50.618;7.024;2022-12-29T15:09:35;12.40;99.90
27164;DHT22;14685;50.618;7.024;2022-12-29T15:12:20;12.40;99.90
27164;DHT22;14685;50.618;7.024;2022-12-29T15:14:56;12.30;99.90
27164;DHT22;14685;50.618;7.024;2022-12-29T15:17:33;12.20;99.90
27164;DHT22;14685;50.618;7.024;2022-12-29T15:20:29;12.20;99.90
27164;DHT22;14685;50.618;7.024;2022-12-29T15:23:23;12.10;99.90
27164;DHT22;14685;50.618;7.024;2022-12-29T15:25:54;12.20;99.90
27164;DHT22;14685;50.618;7.024;2022-12-29T15:28:22;12.20;99.90
27164;DHT22;14685;50.618;7.024;2022-12-29T15:31:01;12.20;99.90
27164;DHT22;14685;50.618;7.024;2022-12-29T15:33:29;12.30;99.90
27164;DHT22;14685;50.618;7.024;2022-12-29T15:36:02;12.30;99.90
27164;DHT22;14685;50.618;7.024;2022-12-29T15:38:30;12.30;99.90
27164;DHT22;14685;50.618;7.024;2022-12-29T15:46:19;12.50;99.90
27164;DHT22;14685;50.618;7.024;2022-12-29T15:48:46;12.40;99.90
27164;DHT22;14685;50.618;7.024;2022-12-29T15:53:47;12.40;99.90
27164;DHT22;14685;50.618;7.024;2022-12-29T15:56:15;12.40;99.90
27164;DHT22;14685;50.618;7.024;2022-12-29T15:58:47;12.30;99.90
27164;DHT22;14685;50.618;7.024;2022-12-29T16:01:24;12.30;99.90
27164;DHT22;14685;50.618;7.024;2022-12-29T16:03:54;12.30;99.90
27164;DHT22;14685;50.618;7.024;2022-12-29T16:06:37;12.20;99.90
27164;DHT22;14685;50.618;7.024;2022-12-29T16:09:07;12.10;99.90
27164;DHT22;14685;50.618;7.024;2022-12-29T16:11:47;12.10;99.90
27164;DHT22;14685;50.618;7.024;2022-12-29T16:14:32;12.10;99.90
27164;DHT22;14685;50.618;7.024;2022-12-29T16:17:01;12.20;99.90
27164;DHT22;14685;50.618;7.024;2022-12-29T16:19:39;12.10;99.90
27164;DHT22;14685;50.618;7.024;2022-12-29T16:22:12;12.10;99.90
27164;DHT22;14685;50.618;7.024;2022-12-29T16:24:42;12.00;99.90
27164;DHT22;14685;50.618;7.024;2022-12-29T16:29:44;12.20;99.90
27164;DHT22;14685;50.618;7.024;2022-12-29T16:32:26;12.20;99.90
27164;DHT22;14685;50.618;7.024;2022-12-29T16:35:13;12.30;99.90
27164;DHT22;14685;50.618;7.024;2022-12-29T16:37:42;12.30;99.90
27164;DHT22;14685;50.618;7.024;2022-12-29T16:40:30;12.30;99.90
27164;DHT22;14685;50.618;7.024;2022-12-29T16:42:59;12.20;99.90
27164;DHT22;14685;50.618;7.024;2022-12-29T16:48:22;12.10;99.90
27164;DHT22;14685;50.618;7.024;2022-12-29T16:50:50;12.10;99.90
27164;DHT22;14685;50.618;7.024;2022-12-29T16:53:20;12.00;99.90
27164;DHT22;14685;50.618;7.024;2022-12-29T16:55:49;12.00;99.90
27164;DHT22;14685;50.618;7.024;2022-12-29T16:58:21;11.90;99.90
27164;DHT22;14685;50.618;7.024;2022-12-29T17:00:48;11.90;99.90
27164;DHT22;14685;50.618;7.024;2022-12-29T17:03:16;11.90;99.90
27164;DHT22;14685;50.618;7.024;2022-12-29T17:05:43;11.90;99.90
27164;DHT22;14685;50.618;7.024;2022-12-29T17:08:28;11.80;99.90
27164;DHT22;14685;50.618;7.024;2022-12-29T17:10:56;11.70;99.90
27164;DHT22;14685;50.618;7.024;2022-12-29T17:13:41;11.70;99.90
27164;DHT22;14685;50.618;7.024;2022-12-29T17:16:10;11.60;99.90
27164;DHT22;14685;50.618;7.024;2022-12-29T17:18:37;11.60;99.90
27164;DHT22;14685;50.618;7.024;2022-12-29T17:21:04;11.50;99.90
27164;DHT22;14685;50.618;7.024;2022-12-29T17:23:32;11.60;99.90
27164;DHT22;14685;50.618;7.024;2022-12-29T17:26:01;11.60;99.90
27164;DHT22;14685;50.618;7.024;2022-12-29T17:28:30;11.50;99.90
27164;DHT22;14685;50.618;7.024;2022-12-29T17:31:01;11.40;99.90
27164;DHT22;14685;50.618;7.024;2022-12-29T17:33:34;11.30;99.90
27164;DHT22;14685;50.618;7.024;2022-12-29T17:36:02;11.30;99.90
27164;DHT22;14685;50.618;7.024;2022-12-29T17:38:33;11.30;99.90
27164;DHT22;14685;50.618;7.024;2022-12-29T17:41:00;11.30;99.90
27164;DHT22;14685;50.618;7.024;2022-12-29T17:43:27;11.20;99.90
27164;DHT22;14685;50.618;7.024;2022-12-29T17:46:04;11.10;99.90
27164;DHT22;14685;50.618;7.024;2022-12-29T17:48:32;11.20;99.90
27164;DHT22;14685;50.618;7.024;2022-12-29T17:51:00;11.10;99.90
27164;DHT22;14685;50.618;7.024;2022-12-29T17:53:28;11.10;99.90
27164;DHT22;14685;50.618;7.024;2022-12-29T17:55:56;11.10;99.90
27164;DHT22;14685;50.618;7.024;2022-12-29T17:58:23;11.00;99.90
27164;DHT22;14685;50.618;7.024;2022-12-29T18:00:55;10.90;99.90
27164;DHT22;14685;50.618;7.024;2022-12-29T18:03:29;11.00;99.90
27164;DHT22;14685;50.618;7.024;2022-12-29T18:05:57;11.00;99.90
27164;DHT22;14685;50.618;7.024;2022-12-29T18:08:24;11.00;99.90
27164;DHT22;14685;50.618;7.024;2022-12-29T18:10:54;11.00;99.90